createdAt,value
2024-03-05T00:00:37.996Z,28.00
2024-03-05T00:01:41.126Z,23.94
2024-03-05T00:02:44.742Z,26.00
2024-03-05T00:03:47.606Z,26.69
2024-03-05T00:04:50.552Z,26.40
2024-03-05T00:05:53.501Z,24.19
2024-03-05T00:06:56.507Z,25.88
2024-03-05T00:07:59.453Z,24.31
2024-03-05T00:09:02.363Z,26.19
2024-03-05T00:10:05.858Z,27.00
2024-03-05T00:11:08.970Z,24.75
2024-03-05T00:12:11.987Z,26.37
2024-03-05T00:13:14.814Z,25.12
2024-03-05T00:14:17.657Z,27.20
2024-03-05T00:15:20.468Z,26.69
2024-03-05T00:16:23.440Z,26.33
2024-03-05T00:17:26.462Z,26.94
2024-03-05T00:18:29.341Z,26.07
2024-03-05T00:19:32.315Z,24.81
2024-03-05T00:20:35.288Z,25.25
2024-03-05T00:21:38.168Z,27.40
2024-03-05T00:22:40.952Z,22.50
2024-03-05T00:23:43.770Z,27.00
2024-03-05T00:24:46.620Z,26.44
2024-03-05T00:25:49.520Z,24.87
2024-03-05T00:26:52.395Z,27.62
2024-03-05T00:27:55.272Z,27.69
2024-03-05T00:28:58.188Z,27.37
2024-03-05T00:30:01.053Z,25.53
2024-03-05T00:31:03.945Z,28.25
2024-03-05T00:32:06.826Z,25.40
2024-03-05T00:33:09.782Z,25.37
2024-03-05T00:34:12.760Z,26.20
2024-03-05T00:35:15.617Z,23.69
2024-03-05T00:36:18.562Z,27.25
2024-03-05T00:37:21.524Z,26.44
2024-03-05T00:38:29.079Z,27.75
2024-03-05T00:39:28.884Z,27.53
2024-03-05T00:40:31.859Z,26.81
2024-03-05T00:41:35.147Z,24.44
2024-03-05T00:42:38.305Z,26.31
2024-03-05T00:43:41.201Z,26.33
2024-03-05T00:44:43.975Z,28.12
2024-03-05T00:45:46.838Z,28.00
2024-03-05T00:46:49.964Z,27.31
2024-03-05T00:47:52.862Z,28.13
2024-03-05T00:48:55.709Z,26.37
2024-03-05T00:49:58.561Z,29.33
2024-03-05T00:51:01.502Z,27.20
2024-03-05T00:52:04.541Z,26.75
2024-03-05T00:53:07.412Z,30.31
2024-03-05T00:54:10.216Z,29.00
2024-03-05T00:55:13.051Z,29.87
2024-03-05T00:56:15.988Z,28.75
2024-03-05T00:57:19.830Z,31.73
2024-03-05T00:58:22.637Z,32.13
2024-03-05T00:59:25.483Z,28.12
2024-03-05T01:00:28.456Z,28.12
2024-03-05T01:01:31.622Z,28.27
2024-03-05T01:02:34.599Z,27.31
2024-03-05T01:03:37.553Z,27.19
2024-03-05T01:04:40.390Z,27.87
2024-03-05T01:05:43.215Z,27.06
2024-03-05T01:06:46.093Z,28.31
2024-03-05T01:07:49.044Z,27.47
2024-03-05T01:08:52.018Z,27.07
2024-03-05T01:09:54.878Z,26.00
2024-03-05T01:10:57.961Z,28.12
2024-03-05T01:12:00.896Z,27.56
2024-03-05T01:13:03.887Z,28.06
2024-03-05T01:14:06.697Z,28.33
2024-03-05T01:15:09.822Z,27.94
2024-03-05T01:16:14.494Z,27.94
2024-03-05T01:17:17.299Z,31.27
2024-03-05T01:18:20.233Z,29.20
2024-03-05T01:19:23.097Z,28.12
2024-03-05T01:20:26.047Z,28.56
2024-03-05T01:21:28.936Z,26.06
2024-03-05T01:22:31.840Z,27.44
2024-03-05T01:23:34.684Z,27.60
2024-03-05T01:24:37.607Z,27.75
2024-03-05T01:25:40.636Z,28.50
2024-03-05T01:26:43.627Z,27.73
2024-03-05T01:27:46.689Z,27.75
2024-03-05T01:28:49.692Z,28.44
2024-03-05T01:29:52.608Z,28.20
2024-03-05T01:30:55.951Z,28.00
2024-03-05T01:31:59.007Z,29.87
2024-03-05T01:33:01.929Z,29.07
2024-03-05T01:34:04.858Z,31.20
2024-03-05T01:35:08.243Z,29.37
2024-03-05T01:36:11.412Z,31.94
2024-03-05T01:37:14.322Z,30.56
2024-03-05T01:38:17.384Z,31.69
2024-03-05T01:39:20.205Z,30.62
2024-03-05T01:40:23.180Z,28.73
2024-03-05T01:41:25.960Z,32.53
2024-03-05T01:42:28.838Z,30.50
2024-03-05T01:43:31.700Z,30.12
2024-03-05T01:44:34.749Z,29.87
2024-03-05T01:45:37.769Z,30.44
2024-03-05T01:46:41.417Z,31.27
2024-03-05T01:47:44.358Z,32.75
2024-03-05T01:48:47.352Z,30.62
2024-03-05T01:49:50.816Z,33.60
2024-03-05T01:50:54.954Z,28.25
2024-03-05T01:51:58.290Z,34.06
2024-03-05T01:53:01.297Z,33.13
2024-03-05T01:54:04.245Z,28.73
2024-03-05T01:55:08.547Z,30.93
2024-03-05T01:56:13.052Z,27.75
2024-03-05T01:57:15.835Z,28.38
2024-03-05T01:58:19.097Z,27.62
2024-03-05T01:59:22.818Z,28.94
2024-03-05T02:00:27.461Z,28.38
2024-03-05T02:01:32.243Z,27.53
2024-03-05T02:02:35.179Z,28.31
2024-03-05T02:03:38.917Z,27.81
2024-03-05T02:04:43.261Z,27.56
2024-03-05T02:05:46.816Z,27.50
2024-03-05T02:06:49.843Z,27.62
2024-03-05T02:07:54.235Z,27.94
2024-03-05T02:08:57.188Z,28.50
2024-03-05T02:10:00.110Z,28.25
2024-03-05T02:11:04.491Z,28.06
2024-03-05T02:12:07.754Z,28.47
2024-03-05T02:13:10.735Z,28.31
2024-03-05T02:14:13.618Z,29.33
2024-03-05T02:15:16.646Z,30.56
2024-03-05T02:16:19.558Z,26.75
2024-03-05T02:17:22.414Z,27.87
2024-03-05T02:18:25.358Z,28.00
2024-03-05T02:19:28.424Z,27.62
2024-03-05T02:20:31.381Z,29.87
2024-03-05T02:21:34.237Z,30.60
2024-03-05T02:22:38.786Z,29.87
2024-03-05T02:23:41.693Z,28.00
2024-03-05T02:24:44.660Z,27.62
2024-03-05T02:25:47.541Z,26.12
2024-03-05T02:26:50.472Z,28.00
2024-03-05T02:27:53.657Z,30.31
2024-03-05T02:28:57.384Z,32.07
2024-03-05T02:30:00.473Z,31.07
2024-03-05T02:31:03.313Z,31.25
2024-03-05T02:32:07.766Z,29.94
2024-03-05T02:33:11.017Z,30.88
2024-03-05T02:34:13.928Z,30.75
2024-03-05T02:35:16.818Z,30.60
2024-03-05T02:36:19.755Z,30.69
2024-03-05T02:37:22.750Z,30.31
2024-03-05T02:38:26.302Z,31.13
2024-03-05T02:39:29.147Z,30.81
2024-03-05T02:40:32.026Z,28.94
2024-03-05T02:41:34.888Z,28.56
2024-03-05T02:42:38.101Z,30.07
2024-03-05T02:43:41.055Z,29.53
2024-03-05T02:44:43.920Z,29.50
2024-03-05T02:45:46.777Z,27.81
2024-03-05T02:46:49.734Z,28.19
2024-03-05T02:47:52.742Z,29.19
2024-03-05T02:48:55.575Z,28.60
2024-03-05T02:49:58.508Z,29.00
2024-03-05T02:51:01.691Z,28.00
2024-03-05T02:52:04.801Z,27.07
2024-03-05T02:53:07.666Z,29.19
2024-03-05T02:54:10.505Z,32.93
2024-03-05T02:55:13.454Z,30.87
2024-03-05T02:56:16.537Z,42.80
2024-03-05T02:57:19.421Z,65.13
2024-03-05T02:58:22.473Z,57.53
2024-03-05T02:59:25.349Z,109.47
2024-03-05T03:00:28.294Z,114.73
2024-03-05T03:01:33.672Z,91.94
2024-03-05T03:02:36.589Z,65.07
2024-03-05T03:03:39.459Z,53.40
2024-03-05T03:04:42.390Z,81.12
2024-03-05T03:05:45.373Z,51.73
2024-03-05T03:06:48.246Z,35.47
2024-03-05T03:07:51.434Z,63.81
2024-03-05T03:08:54.417Z,56.73
2024-03-05T03:09:57.321Z,65.81
2024-03-05T03:11:00.443Z,53.00
2024-03-05T03:12:03.418Z,40.44
2024-03-05T03:13:06.275Z,30.06
2024-03-05T03:14:09.193Z,30.00
2024-03-05T03:15:12.010Z,29.50
2024-03-05T03:16:15.618Z,29.00
2024-03-05T03:17:18.462Z,28.75
2024-03-05T03:18:21.320Z,28.06
2024-03-05T03:19:24.353Z,29.50
2024-03-05T03:20:27.311Z,29.94
2024-03-05T03:21:30.171Z,32.63
2024-03-05T03:22:33.082Z,37.93
2024-03-05T03:23:35.965Z,33.47
2024-03-05T03:24:38.741Z,51.60
2024-03-05T03:25:42.427Z,32.13
2024-03-05T03:26:45.887Z,27.87
2024-03-05T03:27:48.762Z,30.50
2024-03-05T03:28:51.671Z,29.06
2024-03-05T03:29:54.458Z,27.25
2024-03-05T03:30:57.607Z,28.75
2024-03-05T03:32:00.712Z,29.50
2024-03-05T03:33:08.153Z,30.56
2024-03-05T03:34:11.077Z,28.20
2024-03-05T03:35:16.590Z,28.62
2024-03-05T03:36:26.812Z,30.67
2024-03-05T03:37:32.137Z,30.69
2024-03-05T03:38:45.507Z,31.20
2024-03-05T03:39:50.495Z,28.38
2024-03-05T03:40:56.466Z,29.81
2024-03-05T03:41:59.414Z,28.38
2024-03-05T03:43:02.410Z,30.73
2024-03-05T03:44:05.323Z,28.00
2024-03-05T03:45:08.312Z,28.06
2024-03-05T03:46:11.822Z,28.44
2024-03-05T03:47:14.730Z,27.31
2024-03-05T03:48:17.605Z,28.40
2024-03-05T03:49:21.707Z,29.75
2024-03-05T03:50:24.757Z,30.75
2024-03-05T03:51:27.573Z,29.25
2024-03-05T03:52:30.427Z,30.47
2024-03-05T03:53:34.739Z,29.81
2024-03-05T03:54:37.640Z,28.44
2024-03-05T03:55:40.538Z,28.75
2024-03-05T03:56:43.535Z,29.12
2024-03-05T03:57:46.378Z,30.20
2024-03-05T03:58:49.302Z,29.31
2024-03-05T03:59:52.119Z,28.31
2024-03-05T04:00:55.023Z,27.67
2024-03-05T04:01:58.058Z,32.69
2024-03-05T04:03:00.931Z,32.81
2024-03-05T04:04:04.039Z,30.81
2024-03-05T04:05:07.066Z,31.73
2024-03-05T04:06:10.004Z,30.73
2024-03-05T04:07:12.920Z,30.69
2024-03-05T04:08:15.723Z,30.27
2024-03-05T04:09:18.523Z,33.13
2024-03-05T04:10:21.526Z,33.88
2024-03-05T04:11:24.552Z,32.20
2024-03-05T04:12:27.755Z,36.88
2024-03-05T04:13:30.653Z,35.00
2024-03-05T04:14:33.430Z,42.93
2024-03-05T04:15:36.247Z,47.00
2024-03-05T04:16:42.386Z,44.07
2024-03-05T04:17:46.124Z,44.87
2024-03-05T04:18:49.058Z,36.69
2024-03-05T04:19:52.199Z,35.67
2024-03-05T04:20:55.161Z,37.63
2024-03-05T04:21:57.993Z,39.06
2024-03-05T04:23:00.923Z,34.25
2024-03-05T04:24:03.792Z,39.88
2024-03-05T04:25:06.900Z,34.38
2024-03-05T04:26:10.222Z,34.40
2024-03-05T04:27:13.068Z,35.93
2024-03-05T04:28:15.920Z,38.27
2024-03-05T04:29:18.799Z,34.73
2024-03-05T04:30:21.659Z,36.19
2024-03-05T04:31:26.196Z,34.87
2024-03-05T04:32:30.857Z,35.69
2024-03-05T04:33:33.796Z,34.73
2024-03-05T04:34:36.783Z,33.93
2024-03-05T04:35:39.659Z,31.93
2024-03-05T04:36:42.515Z,33.80
2024-03-05T04:37:45.413Z,34.50
2024-03-05T04:38:48.319Z,34.33
2024-03-05T04:39:51.095Z,35.13
2024-03-05T04:40:54.175Z,40.88
2024-03-05T04:41:57.059Z,44.40
2024-03-05T04:43:02.965Z,40.12
2024-03-05T04:44:05.773Z,37.47
2024-03-05T04:45:08.744Z,35.00
2024-03-05T04:46:11.826Z,41.13
2024-03-05T04:47:14.688Z,35.67
2024-03-05T04:48:17.766Z,33.47
2024-03-05T04:49:20.745Z,36.13
2024-03-05T04:50:23.600Z,35.47
2024-03-05T04:51:26.422Z,32.63
2024-03-05T04:52:32.438Z,30.94
2024-03-05T04:53:33.834Z,33.44
2024-03-05T04:54:36.934Z,29.37
2024-03-05T04:55:39.995Z,30.00
2024-03-05T04:56:42.964Z,30.56
2024-03-05T04:57:45.848Z,28.07
2024-03-05T04:58:48.781Z,28.06
2024-03-05T04:59:53.546Z,27.75
2024-03-05T05:00:56.296Z,26.69
2024-03-05T05:01:59.279Z,27.53
2024-03-05T05:03:02.131Z,28.67
2024-03-05T05:04:05.000Z,27.93
2024-03-05T05:05:07.878Z,27.62
2024-03-05T05:06:11.648Z,29.31
2024-03-05T05:07:14.622Z,29.33
2024-03-05T05:08:17.497Z,28.75
2024-03-05T05:09:20.399Z,27.00
2024-03-05T05:10:23.517Z,34.38
2024-03-05T05:11:26.525Z,30.60
2024-03-05T05:12:29.552Z,28.81
2024-03-05T05:13:32.534Z,32.75
2024-03-05T05:14:38.619Z,27.94
2024-03-05T05:15:39.890Z,29.87
2024-03-05T05:16:44.295Z,31.07
2024-03-05T05:17:47.201Z,32.06
2024-03-05T05:18:50.096Z,28.31
2024-03-05T05:19:53.006Z,29.00
2024-03-05T05:20:56.058Z,30.07
2024-03-05T05:21:59.042Z,32.13
2024-03-05T05:23:02.010Z,37.06
2024-03-05T05:24:05.021Z,31.67
2024-03-05T05:25:08.132Z,29.31
2024-03-05T05:26:11.939Z,30.07
2024-03-05T05:27:14.747Z,29.87
2024-03-05T05:28:17.619Z,30.80
2024-03-05T05:29:27.540Z,32.33
2024-03-05T05:30:25.271Z,34.13
2024-03-05T05:31:28.171Z,31.87
2024-03-05T05:32:33.621Z,35.67
2024-03-05T05:33:36.228Z,34.53
2024-03-05T05:34:39.149Z,38.75
2024-03-05T05:35:41.941Z,43.13
2024-03-05T05:36:44.834Z,38.07
2024-03-05T05:37:47.681Z,31.87
2024-03-05T05:38:51.317Z,31.60
2024-03-05T05:39:54.185Z,32.60
2024-03-05T05:40:57.228Z,29.00
2024-03-05T05:42:00.197Z,33.31
2024-03-05T05:43:03.172Z,28.12
2024-03-05T05:44:05.998Z,31.87
2024-03-05T05:45:09.009Z,30.56
2024-03-05T05:46:12.132Z,31.00
2024-03-05T05:47:15.256Z,30.75
2024-03-05T05:48:20.280Z,31.60
2024-03-05T05:49:23.290Z,31.25
2024-03-05T05:50:26.239Z,31.00
2024-03-05T05:51:30.530Z,32.25
2024-03-05T05:52:33.485Z,31.00
2024-03-05T05:53:36.389Z,33.07
2024-03-05T05:54:39.244Z,33.56
2024-03-05T05:55:42.072Z,32.93
2024-03-05T05:56:45.268Z,32.00
2024-03-05T05:57:48.715Z,33.80
2024-03-05T05:58:51.605Z,38.07
2024-03-05T05:59:54.581Z,33.19
2024-03-05T06:00:57.525Z,32.87
2024-03-05T06:02:00.568Z,31.81
2024-03-05T06:03:03.768Z,32.50
2024-03-05T06:04:06.665Z,34.47
2024-03-05T06:05:09.540Z,35.73
2024-03-05T06:06:15.958Z,35.88
2024-03-05T06:07:18.841Z,30.69
2024-03-05T06:08:21.704Z,32.88
2024-03-05T06:09:26.197Z,27.37
2024-03-05T06:10:31.127Z,27.87
2024-03-05T06:11:39.083Z,28.12
2024-03-05T06:12:42.556Z,34.88
2024-03-05T06:13:45.581Z,28.25
2024-03-05T06:14:48.427Z,32.50
2024-03-05T06:15:51.712Z,33.00
2024-03-05T06:16:54.782Z,30.31
2024-03-05T06:17:57.782Z,27.87
2024-03-05T06:19:03.707Z,29.12
2024-03-05T06:20:09.785Z,27.00
2024-03-05T06:21:12.651Z,26.81
2024-03-05T06:22:19.839Z,27.53
2024-03-05T06:23:20.347Z,29.07
2024-03-05T06:24:23.514Z,27.53
2024-03-05T06:25:28.465Z,25.93
2024-03-05T06:26:38.029Z,26.07
2024-03-05T06:27:41.276Z,23.56
2024-03-05T06:28:44.100Z,26.50
2024-03-05T06:29:50.254Z,27.27
2024-03-05T06:30:53.238Z,25.75
2024-03-05T06:31:56.072Z,29.27
2024-03-05T06:32:58.843Z,28.20
2024-03-05T06:34:01.732Z,28.00
2024-03-05T06:35:07.551Z,26.69
2024-03-05T06:36:10.627Z,26.27
2024-03-05T06:37:13.587Z,26.06
2024-03-05T06:38:16.361Z,26.00
2024-03-05T06:39:22.081Z,27.44
2024-03-05T06:40:25.610Z,68.47
2024-03-05T06:41:28.634Z,28.69
2024-03-05T06:42:31.502Z,27.94
2024-03-05T06:43:34.572Z,27.25
2024-03-05T06:44:37.787Z,27.00
2024-03-05T06:45:40.721Z,28.00
2024-03-05T06:46:43.715Z,28.19
2024-03-05T06:47:46.812Z,27.37
2024-03-05T06:48:51.217Z,26.69
2024-03-05T06:49:54.321Z,26.12
2024-03-05T06:50:57.731Z,27.33
2024-03-05T06:52:00.663Z,26.12
2024-03-05T06:53:04.986Z,27.47
2024-03-05T06:54:07.868Z,25.31
2024-03-05T06:55:10.738Z,27.87
2024-03-05T06:56:13.937Z,27.69
2024-03-05T06:57:16.865Z,27.37
2024-03-05T06:58:19.743Z,27.87
2024-03-05T06:59:22.607Z,26.12
2024-03-05T07:00:25.573Z,26.25
2024-03-05T07:01:29.174Z,27.00
2024-03-05T07:02:32.452Z,27.75
2024-03-05T07:03:36.790Z,27.56
2024-03-05T07:04:39.646Z,27.33
2024-03-05T07:05:44.295Z,27.06
2024-03-05T07:06:47.263Z,26.87
2024-03-05T07:07:50.382Z,26.56
2024-03-05T07:08:53.500Z,25.69
2024-03-05T07:09:56.366Z,32.06
2024-03-05T07:10:59.445Z,28.50
2024-03-05T07:12:02.542Z,28.25
2024-03-05T07:13:05.425Z,28.75
2024-03-05T07:14:08.312Z,28.12
2024-03-05T07:15:16.699Z,28.31
2024-03-05T07:16:20.734Z,28.94
2024-03-05T07:17:23.861Z,27.06
2024-03-05T07:18:26.718Z,26.62
2024-03-05T07:19:29.646Z,28.06
2024-03-05T07:20:32.687Z,26.50
2024-03-05T07:21:35.476Z,26.33
2024-03-05T07:22:38.358Z,27.67
2024-03-05T07:23:41.457Z,27.27
2024-03-05T07:24:44.333Z,26.56
2024-03-05T07:25:47.205Z,25.93
2024-03-05T07:26:56.773Z,27.00
2024-03-05T07:27:54.608Z,21.60
2024-03-05T07:28:57.438Z,26.37
2024-03-05T07:30:00.368Z,28.38
2024-03-05T07:31:03.328Z,28.69
2024-03-05T07:32:06.741Z,26.87
2024-03-05T07:33:10.026Z,26.75
2024-03-05T07:34:12.946Z,26.00
2024-03-05T07:35:18.866Z,28.69
2024-03-05T07:36:22.416Z,29.44
2024-03-05T07:37:25.285Z,26.87
2024-03-05T07:38:28.150Z,28.19
2024-03-05T07:39:31.011Z,28.12
2024-03-05T07:40:33.974Z,27.56
2024-03-05T07:41:36.981Z,25.19
2024-03-05T07:42:43.341Z,27.50
2024-03-05T07:43:46.202Z,26.50
2024-03-05T07:44:48.968Z,26.19
2024-03-05T07:45:51.777Z,28.69
2024-03-05T07:46:54.747Z,27.94
2024-03-05T07:47:58.079Z,27.94
2024-03-05T07:49:01.126Z,27.13
2024-03-05T07:50:04.223Z,27.47
2024-03-05T07:51:07.087Z,26.73
2024-03-05T07:52:09.874Z,27.37
2024-03-05T07:53:12.671Z,28.75
2024-03-05T07:54:15.556Z,26.07
2024-03-05T07:55:23.974Z,28.62
2024-03-05T07:56:24.751Z,28.69
2024-03-05T07:57:27.588Z,27.56
2024-03-05T07:58:30.533Z,27.06
2024-03-05T07:59:33.400Z,27.56
2024-03-05T08:00:36.330Z,27.75
2024-03-05T08:01:39.287Z,28.38
2024-03-05T08:02:43.312Z,27.40
2024-03-05T08:03:46.187Z,26.37
2024-03-05T08:04:49.096Z,27.73
2024-03-05T08:05:52.014Z,28.67
2024-03-05T08:06:58.195Z,28.33
2024-03-05T08:07:59.577Z,27.93
2024-03-05T08:09:02.506Z,26.93
2024-03-05T08:10:06.092Z,28.60
2024-03-05T08:11:09.052Z,25.80
2024-03-05T08:12:11.981Z,28.50
2024-03-05T08:13:14.837Z,27.13
2024-03-05T08:14:17.774Z,27.37
2024-03-05T08:15:20.725Z,28.12
2024-03-05T08:16:23.703Z,27.20
2024-03-05T08:17:26.587Z,27.00
2024-03-05T08:18:29.395Z,24.00
2024-03-05T08:19:33.592Z,25.93
2024-03-05T08:20:36.673Z,26.44
2024-03-05T08:21:39.513Z,26.94
2024-03-05T08:22:43.017Z,26.20
2024-03-05T08:23:45.982Z,27.47
2024-03-05T08:24:48.794Z,28.50
2024-03-05T08:25:51.676Z,27.19
2024-03-05T08:26:54.799Z,27.62
2024-03-05T08:27:57.647Z,26.81
2024-03-05T08:29:00.545Z,27.87
2024-03-05T08:30:03.808Z,27.40
2024-03-05T08:31:06.699Z,26.69
2024-03-05T08:32:09.635Z,24.53
2024-03-05T08:33:12.648Z,26.53
2024-03-05T08:34:15.524Z,27.31
2024-03-05T08:35:18.415Z,26.62
2024-03-05T08:36:21.697Z,26.87
2024-03-05T08:37:24.618Z,27.81
2024-03-05T08:38:27.597Z,26.87
2024-03-05T08:39:30.458Z,26.50
2024-03-05T08:40:33.591Z,27.81
2024-03-05T08:41:36.737Z,27.94
2024-03-05T08:42:39.682Z,28.56
2024-03-05T08:43:42.698Z,21.19
2024-03-05T08:44:45.569Z,27.06
2024-03-05T08:45:48.362Z,34.31
2024-03-05T08:46:51.376Z,26.75
2024-03-05T08:47:55.365Z,27.00
2024-03-05T08:48:58.271Z,28.06
2024-03-05T08:50:01.226Z,28.38
2024-03-05T08:51:04.122Z,26.47
2024-03-05T08:52:07.520Z,28.25
2024-03-05T08:53:10.530Z,26.75
2024-03-05T08:54:16.473Z,28.00
2024-03-05T08:55:19.726Z,25.44
2024-03-05T08:56:22.739Z,28.31
2024-03-05T08:57:25.727Z,28.47
2024-03-05T08:58:28.570Z,26.07
2024-03-05T08:59:31.412Z,27.20
2024-03-05T09:00:41.813Z,27.87
2024-03-05T09:01:38.865Z,27.31
2024-03-05T09:02:43.845Z,26.00
2024-03-05T09:03:46.650Z,25.62
2024-03-05T09:04:50.088Z,26.44
2024-03-05T09:05:53.014Z,26.94
2024-03-05T09:06:55.990Z,25.44
2024-03-05T09:07:59.072Z,24.87
2024-03-05T09:09:02.080Z,27.87
2024-03-05T09:10:06.451Z,27.62
2024-03-05T09:11:09.420Z,26.00
2024-03-05T09:12:12.307Z,26.94
2024-03-05T09:13:15.108Z,26.87
2024-03-05T09:14:18.178Z,26.40
2024-03-05T09:15:21.013Z,26.94
2024-03-05T09:16:24.016Z,26.93
2024-03-05T09:17:27.225Z,25.87
2024-03-05T09:18:30.170Z,27.62
2024-03-05T09:19:33.128Z,26.94
2024-03-05T09:20:36.040Z,29.00
2024-03-05T09:21:39.813Z,26.47
2024-03-05T09:22:46.738Z,26.40
2024-03-05T09:23:50.312Z,27.69
2024-03-05T09:24:53.211Z,28.81
2024-03-05T09:25:56.088Z,26.12
2024-03-05T09:27:02.739Z,26.81
2024-03-05T09:28:05.704Z,27.31
2024-03-05T09:29:08.619Z,28.00
2024-03-05T09:30:12.525Z,27.00
2024-03-05T09:31:15.319Z,24.69
2024-03-05T09:32:18.124Z,26.73
2024-03-05T09:33:21.346Z,29.20
2024-03-05T09:34:25.892Z,28.56
2024-03-05T09:35:29.212Z,27.19
2024-03-05T09:36:35.124Z,27.50
2024-03-05T09:37:37.564Z,28.44
2024-03-05T09:38:40.539Z,28.12
2024-03-05T09:39:45.329Z,25.62
2024-03-05T09:40:48.112Z,27.87
2024-03-05T09:41:51.214Z,28.19
2024-03-05T09:42:55.552Z,25.50
2024-03-05T09:43:58.775Z,27.87
2024-03-05T09:45:01.815Z,27.75
2024-03-05T09:46:06.308Z,27.73
2024-03-05T09:47:10.297Z,25.31
2024-03-05T09:48:13.539Z,27.37
2024-03-05T09:49:22.574Z,27.94
2024-03-05T09:50:22.326Z,27.25
2024-03-05T09:51:26.404Z,24.25
2024-03-05T09:52:29.603Z,27.25
2024-03-05T09:53:34.021Z,24.00
2024-03-05T09:54:37.972Z,27.40
2024-03-05T09:55:41.121Z,26.31
2024-03-05T09:56:45.018Z,26.20
2024-03-05T09:57:49.007Z,27.37
2024-03-05T09:58:52.251Z,26.44
2024-03-05T09:59:55.111Z,27.75
2024-03-05T10:00:59.461Z,31.50
2024-03-05T10:02:02.906Z,30.27
2024-03-05T10:03:06.752Z,28.06
2024-03-05T10:04:12.765Z,27.62
2024-03-05T10:05:17.685Z,27.56
2024-03-05T10:06:20.926Z,27.56
2024-03-05T10:07:27.107Z,28.20
2024-03-05T10:08:30.114Z,27.37
2024-03-05T10:09:32.974Z,26.80
2024-03-05T10:10:35.974Z,27.94
2024-03-05T10:11:38.966Z,28.13
2024-03-05T10:12:42.109Z,27.75
2024-03-05T10:13:45.136Z,26.47
2024-03-05T10:14:49.134Z,27.69
2024-03-05T10:15:52.436Z,25.12
2024-03-05T10:17:01.764Z,26.06
2024-03-05T10:18:04.999Z,27.87
2024-03-05T10:19:15.317Z,27.47
2024-03-05T10:20:29.031Z,27.47
2024-03-05T10:21:32.026Z,27.31
2024-03-05T10:22:34.912Z,25.67
2024-03-05T10:23:37.841Z,25.81
2024-03-05T10:24:40.771Z,27.50
2024-03-05T10:25:43.616Z,27.19
2024-03-05T10:26:46.801Z,27.06
2024-03-05T10:27:49.714Z,27.33
2024-03-05T10:28:52.936Z,28.94
2024-03-05T10:29:55.835Z,27.80
2024-03-05T10:31:01.810Z,28.60
2024-03-05T10:32:05.365Z,27.56
2024-03-05T10:33:11.594Z,28.33
2024-03-05T10:34:16.286Z,26.06
2024-03-05T10:35:19.097Z,29.47
2024-03-05T10:36:25.699Z,27.27
2024-03-05T10:37:28.620Z,27.75
2024-03-05T10:38:33.013Z,27.87
2024-03-05T10:39:35.871Z,26.87
2024-03-05T10:40:39.868Z,27.37
2024-03-05T10:41:47.619Z,26.94
2024-03-05T10:42:49.001Z,27.69
2024-03-05T10:43:52.050Z,28.20
2024-03-05T10:44:55.852Z,26.80
2024-03-05T10:45:58.728Z,25.94
2024-03-05T10:47:02.376Z,28.69
2024-03-05T10:48:05.670Z,27.44
2024-03-05T10:49:09.101Z,28.00
2024-03-05T10:50:12.562Z,28.31
2024-03-05T10:51:16.875Z,25.73
2024-03-05T10:52:21.410Z,27.75
2024-03-05T10:53:24.790Z,27.94
2024-03-05T10:54:29.040Z,27.73
2024-03-05T10:55:33.726Z,27.06
2024-03-05T10:56:43.680Z,26.69
2024-03-05T10:57:43.294Z,30.44
2024-03-05T10:58:46.901Z,28.94
2024-03-05T10:59:49.775Z,29.93
2024-03-05T11:00:53.680Z,36.40
2024-03-05T11:01:57.983Z,26.75
2024-03-05T11:03:02.506Z,28.56
2024-03-05T11:04:18.795Z,26.13
2024-03-05T11:06:50.745Z,26.50
2024-03-05T11:07:54.693Z,26.81
2024-03-05T11:08:58.530Z,27.13
2024-03-05T11:10:02.361Z,22.93
2024-03-05T11:11:06.722Z,25.19
2024-03-05T11:12:11.113Z,25.75
2024-03-05T11:13:15.084Z,24.87
2024-03-05T11:14:19.040Z,23.00
2024-03-05T11:15:22.158Z,24.37
2024-03-05T11:16:26.622Z,27.31
2024-03-05T11:17:30.848Z,26.25
2024-03-05T11:18:37.923Z,25.62
2024-03-05T11:19:42.279Z,26.81
2024-03-05T11:20:46.865Z,25.12
2024-03-05T11:21:49.782Z,26.87
2024-03-05T11:22:52.814Z,24.94
2024-03-05T11:23:56.624Z,27.25
2024-03-05T11:25:03.732Z,26.19
2024-03-05T11:26:11.557Z,27.69
2024-03-05T11:27:16.038Z,27.20
2024-03-05T11:28:19.611Z,22.69
2024-03-05T11:29:26.968Z,25.31
2024-03-05T11:30:29.972Z,26.44
2024-03-05T11:31:33.432Z,25.75
2024-03-05T11:32:37.033Z,26.87
2024-03-05T11:33:40.774Z,28.20
2024-03-05T11:34:45.116Z,26.40
2024-03-05T11:35:48.064Z,27.19
2024-03-05T11:37:12.350Z,27.13
2024-03-05T11:38:15.511Z,26.37
2024-03-05T11:39:18.519Z,23.07
2024-03-05T11:40:22.198Z,25.00
2024-03-05T11:41:25.553Z,25.12
2024-03-05T11:42:31.042Z,25.69
2024-03-05T11:43:38.197Z,25.33
2024-03-05T11:44:42.837Z,26.00
2024-03-05T11:45:49.619Z,25.94
2024-03-05T11:46:54.588Z,23.38
2024-03-05T11:47:57.545Z,26.25
2024-03-05T11:49:03.635Z,25.27
2024-03-05T11:50:07.029Z,25.31
2024-03-05T11:51:09.916Z,25.94
2024-03-05T11:52:13.468Z,25.62
2024-03-05T11:53:16.459Z,24.19
2024-03-05T11:54:22.685Z,25.12
2024-03-05T11:55:26.291Z,24.63
2024-03-05T11:56:29.505Z,23.69
2024-03-05T11:57:32.591Z,23.50
2024-03-05T11:58:35.505Z,24.94
2024-03-05T11:59:39.263Z,24.75
2024-03-05T12:00:42.226Z,34.67
2024-03-05T12:01:45.330Z,24.75
2024-03-05T12:02:49.701Z,22.56
2024-03-05T12:04:04.330Z,21.44
2024-03-05T12:05:10.171Z,23.94
2024-03-05T12:06:14.962Z,25.12
2024-03-05T12:07:17.959Z,24.75
2024-03-05T12:08:22.224Z,24.00
2024-03-05T12:09:25.172Z,22.87
2024-03-05T12:10:29.445Z,23.19
2024-03-05T12:11:32.460Z,24.63
2024-03-05T12:12:35.342Z,22.53
2024-03-05T12:13:38.262Z,24.50
2024-03-05T12:14:42.577Z,23.06
2024-03-05T12:15:45.663Z,23.12
2024-03-05T12:16:48.900Z,22.37
2024-03-05T12:17:52.001Z,26.75
2024-03-05T12:18:56.476Z,24.19
2024-03-05T12:20:03.679Z,22.87
2024-03-05T12:21:07.326Z,29.25
2024-03-05T12:22:10.283Z,23.69
2024-03-05T12:23:13.341Z,24.94
2024-03-05T12:24:16.399Z,23.56
2024-03-05T12:25:21.800Z,19.06
2024-03-05T12:26:24.787Z,23.25
2024-03-05T12:27:27.754Z,23.50
2024-03-05T12:28:33.440Z,23.06
2024-03-05T12:29:37.633Z,24.94
2024-03-05T12:30:40.923Z,23.44
2024-03-05T12:31:43.763Z,23.06
2024-03-05T12:32:48.241Z,21.06
2024-03-05T12:33:51.290Z,24.44
2024-03-05T12:34:54.288Z,24.44
2024-03-05T12:35:57.436Z,23.12
2024-03-05T12:37:00.372Z,24.69
2024-03-05T12:38:03.839Z,24.63
2024-03-05T12:39:06.905Z,22.94
2024-03-05T12:40:16.449Z,23.00
2024-03-05T12:41:19.713Z,21.44
2024-03-05T12:42:22.603Z,22.25
2024-03-05T12:43:25.434Z,22.06
2024-03-05T12:44:28.412Z,22.56
2024-03-05T12:45:31.439Z,22.62
2024-03-05T12:46:34.419Z,23.69
2024-03-05T12:47:39.719Z,20.25
2024-03-05T12:48:44.640Z,22.06
2024-03-05T12:49:49.663Z,21.00
2024-03-05T12:50:54.930Z,22.00
2024-03-05T12:52:06.987Z,21.56
2024-03-05T12:53:11.766Z,20.67
2024-03-05T12:54:16.231Z,21.60
2024-03-05T12:55:20.954Z,20.75
2024-03-05T12:56:25.525Z,21.33
2024-03-05T12:57:30.832Z,21.56
2024-03-05T12:58:42.161Z,20.12
2024-03-05T12:59:45.402Z,24.13
2024-03-05T13:00:48.983Z,25.12
2024-03-05T13:01:53.650Z,22.37
2024-03-05T13:02:58.262Z,21.56
2024-03-05T13:04:02.866Z,21.50
2024-03-05T13:05:07.661Z,19.00
2024-03-05T13:06:16.122Z,21.56
2024-03-05T13:07:19.433Z,21.00
2024-03-05T13:08:22.296Z,21.06
2024-03-05T13:09:25.282Z,17.93
2024-03-05T13:10:28.446Z,21.75
2024-03-05T13:11:31.425Z,19.62
2024-03-05T13:12:34.844Z,19.94
2024-03-05T13:13:37.868Z,21.06
2024-03-05T13:14:40.932Z,21.87
2024-03-05T13:15:43.814Z,19.50
2024-03-05T13:17:01.223Z,20.31
2024-03-05T13:18:04.172Z,20.50
2024-03-05T13:19:07.147Z,22.56
2024-03-05T13:20:10.601Z,22.19
2024-03-05T13:21:33.903Z,21.73
2024-03-05T13:22:25.624Z,22.50
2024-03-05T13:23:28.501Z,34.60
2024-03-05T13:24:31.392Z,22.25
2024-03-05T13:25:36.004Z,23.25
2024-03-05T13:26:39.729Z,48.53
2024-03-05T13:27:43.539Z,25.75
2024-03-05T13:28:46.452Z,23.50
2024-03-05T13:29:51.455Z,28.50
2024-03-05T13:30:53.912Z,27.93
2024-03-05T13:31:56.930Z,26.80
2024-03-05T13:33:03.655Z,44.31
2024-03-05T13:34:04.357Z,71.12
2024-03-05T13:35:07.444Z,42.50
2024-03-05T13:36:11.152Z,23.19
2024-03-05T13:37:14.440Z,25.69
2024-03-05T13:38:17.406Z,26.13
2024-03-05T13:39:20.684Z,22.56
2024-03-05T13:40:23.927Z,25.69